sensor_id;sensor_type;location;lat;lon;timestamp;P1;durP1;ratioP1;P2;durP2;ratioP2
30892;SDS011;17595;50.884;4.346;2023-05-10T00:01:04;14.73;;;8.23;;
30892;SDS011;17595;50.884;4.346;2023-05-10T00:03:30;14.00;;;8.13;;
30892;SDS011;17595;50.884;4.346;2023-05-10T00:05:56;14.20;;;7.60;;
30892;SDS011;17595;50.884;4.346;2023-05-10T00:08:22;17.75;;;8.85;;
30892;SDS011;17595;50.884;4.346;2023-05-10T00:10:47;14.60;;;8.02;;
30892;SDS011;17595;50.884;4.346;2023-05-10T00:13:13;12.43;;;7.38;;
30892;SDS011;17595;50.884;4.346;2023-05-10T00:15:39;18.85;;;8.65;;
30892;SDS011;17595;50.884;4.346;2023-05-10T00:18:04;16.30;;;8.30;;
30892;SDS011;17595;50.884;4.346;2023-05-10T00:20:30;22.85;;;9.05;;
30892;SDS011;17595;50.884;4.346;2023-05-10T00:22:56;12.90;;;8.27;;
30892;SDS011;17595;50.884;4.346;2023-05-10T00:25:22;13.20;;;8.55;;
30892;SDS011;17595;50.884;4.346;2023-05-10T00:27:47;13.48;;;9.18;;
30892;SDS011;17595;50.884;4.346;2023-05-10T00:30:13;18.30;;;9.30;;
30892;SDS011;17595;50.884;4.346;2023-05-10T00:32:39;15.88;;;8.98;;
30892;SDS011;17595;50.884;4.346;2023-05-10T00:35:04;13.15;;;8.57;;
30892;SDS011;17595;50.884;4.346;2023-05-10T00:37:30;12.15;;;9.00;;
30892;SDS011;17595;50.884;4.346;2023-05-10T00:39:56;13.02;;;8.90;;
30892;SDS011;17595;50.884;4.346;2023-05-10T00:42:22;18.92;;;9.50;;
30892;SDS011;17595;50.884;4.346;2023-05-10T00:44:47;16.45;;;9.00;;
30892;SDS011;17595;50.884;4.346;2023-05-10T00:47:13;17.70;;;9.40;;
30892;SDS011;17595;50.884;4.346;2023-05-10T00:49:39;17.75;;;9.77;;
30892;SDS011;17595;50.884;4.346;2023-05-10T00:52:06;18.77;;;9.90;;
30892;SDS011;17595;50.884;4.346;2023-05-10T00:54:32;18.05;;;9.88;;
30892;SDS011;17595;50.884;4.346;2023-05-10T00:56:58;17.67;;;9.45;;
30892;SDS011;17595;50.884;4.346;2023-05-10T00:59:24;14.48;;;9.65;;
30892;SDS011;17595;50.884;4.346;2023-05-10T01:01:50;16.38;;;9.40;;
30892;SDS011;17595;50.884;4.346;2023-05-10T01:04:16;17.50;;;9.90;;
30892;SDS011;17595;50.884;4.346;2023-05-10T01:06:42;17.45;;;9.77;;
30892;SDS011;17595;50.884;4.346;2023-05-10T01:09:08;18.77;;;10.38;;
30892;SDS011;17595;50.884;4.346;2023-05-10T01:11:35;19.15;;;10.73;;
30892;SDS011;17595;50.884;4.346;2023-05-10T01:14:03;15.30;;;10.18;;
30892;SDS011;17595;50.884;4.346;2023-05-10T01:16:29;14.80;;;10.32;;
30892;SDS011;17595;50.884;4.346;2023-05-10T01:19:01;16.33;;;10.40;;
30892;SDS011;17595;50.884;4.346;2023-05-10T01:21:38;19.27;;;10.63;;
30892;SDS011;17595;50.884;4.346;2023-05-10T01:34:53;17.40;;;11.27;;
30892;SDS011;17595;50.884;4.346;2023-05-10T01:37:31;17.15;;;10.50;;
30892;SDS011;17595;50.884;4.346;2023-05-10T01:40:39;16.20;;;10.68;;
30892;SDS011;17595;50.884;4.346;2023-05-10T01:43:16;18.48;;;11.30;;
30892;SDS011;17595;50.884;4.346;2023-05-10T01:48:25;20.02;;;11.95;;
30892;SDS011;17595;50.884;4.346;2023-05-10T01:50:54;16.85;;;10.57;;
30892;SDS011;17595;50.884;4.346;2023-05-10T01:53:21;17.40;;;11.13;;
30892;SDS011;17595;50.884;4.346;2023-05-10T01:55:49;16.10;;;10.95;;
30892;SDS011;17595;50.884;4.346;2023-05-10T01:58:21;17.73;;;10.73;;
30892;SDS011;17595;50.884;4.346;2023-05-10T02:00:52;20.80;;;12.10;;
30892;SDS011;17595;50.884;4.346;2023-05-10T02:03:20;17.77;;;10.77;;
30892;SDS011;17595;50.884;4.346;2023-05-10T02:05:49;16.13;;;11.35;;
30892;SDS011;17595;50.884;4.346;2023-05-10T02:08:17;15.57;;;11.27;;
30892;SDS011;17595;50.884;4.346;2023-05-10T02:10:44;20.42;;;11.55;;
30892;SDS011;17595;50.884;4.346;2023-05-10T02:13:11;17.20;;;11.77;;
30892;SDS011;17595;50.884;4.346;2023-05-10T02:15:39;17.45;;;11.07;;
30892;SDS011;17595;50.884;4.346;2023-05-10T02:18:06;16.20;;;11.02;;
30892;SDS011;17595;50.884;4.346;2023-05-10T02:20:33;18.67;;;11.73;;
30892;SDS011;17595;50.884;4.346;2023-05-10T02:23:00;18.45;;;11.40;;
30892;SDS011;17595;50.884;4.346;2023-05-10T02:25:28;19.52;;;12.60;;
30892;SDS011;17595;50.884;4.346;2023-05-10T02:27:55;19.65;;;11.85;;
30892;SDS011;17595;50.884;4.346;2023-05-10T02:30:22;17.67;;;12.20;;
30892;SDS011;17595;50.884;4.346;2023-05-10T02:32:49;19.95;;;11.88;;
30892;SDS011;17595;50.884;4.346;2023-05-10T02:35:16;18.65;;;12.30;;
30892;SDS011;17595;50.884;4.346;2023-05-10T02:37:43;22.58;;;12.30;;
30892;SDS011;17595;50.884;4.346;2023-05-10T02:40:10;17.90;;;11.13;;
30892;SDS011;17595;50.884;4.346;2023-05-10T02:42:37;19.67;;;11.23;;
30892;SDS011;17595;50.884;4.346;2023-05-10T02:45:07;19.42;;;10.77;;
30892;SDS011;17595;50.884;4.346;2023-05-10T02:47:36;17.23;;;10.38;;
30892;SDS011;17595;50.884;4.346;2023-05-10T02:50:02;19.13;;;11.30;;
30892;SDS011;17595;50.884;4.346;2023-05-10T02:52:34;16.48;;;10.90;;
30892;SDS011;17595;50.884;4.346;2023-05-10T02:55:05;19.33;;;11.48;;
30892;SDS011;17595;50.884;4.346;2023-05-10T02:57:34;19.20;;;11.68;;
30892;SDS011;17595;50.884;4.346;2023-05-10T03:00:00;15.10;;;10.13;;
30892;SDS011;17595;50.884;4.346;2023-05-10T03:02:28;20.30;;;10.55;;
30892;SDS011;17595;50.884;4.346;2023-05-10T03:04:55;18.33;;;10.93;;
30892;SDS011;17595;50.884;4.346;2023-05-10T03:07:21;15.65;;;10.57;;
30892;SDS011;17595;50.884;4.346;2023-05-10T03:09:47;16.08;;;10.38;;
30892;SDS011;17595;50.884;4.346;2023-05-10T03:18:28;26.30;;;10.98;;
30892;SDS011;17595;50.884;4.346;2023-05-10T03:26:05;18.10;;;11.82;;
30892;SDS011;17595;50.884;4.346;2023-05-10T03:28:33;21.60;;;12.40;;
30892;SDS011;17595;50.884;4.346;2023-05-10T03:31:00;17.38;;;11.63;;
30892;SDS011;17595;50.884;4.346;2023-05-10T03:33:29;16.15;;;11.70;;
30892;SDS011;17595;50.884;4.346;2023-05-10T03:35:54;18.38;;;12.10;;
30892;SDS011;17595;50.884;4.346;2023-05-10T03:38:20;22.48;;;12.75;;
30892;SDS011;17595;50.884;4.346;2023-05-10T03:40:46;23.20;;;13.27;;
30892;SDS011;17595;50.884;4.346;2023-05-10T03:43:11;21.20;;;12.77;;
30892;SDS011;17595;50.884;4.346;2023-05-10T03:45:37;21.17;;;13.25;;
30892;SDS011;17595;50.884;4.346;2023-05-10T03:48:03;20.70;;;14.20;;
30892;SDS011;17595;50.884;4.346;2023-05-10T03:50:28;21.52;;;13.68;;
30892;SDS011;17595;50.884;4.346;2023-05-10T03:52:54;23.08;;;13.77;;
30892;SDS011;17595;50.884;4.346;2023-05-10T03:55:20;22.88;;;14.57;;
30892;SDS011;17595;50.884;4.346;2023-05-10T03:57:45;26.52;;;15.57;;
30892;SDS011;17595;50.884;4.346;2023-05-10T04:00:11;23.42;;;14.75;;
30892;SDS011;17595;50.884;4.346;2023-05-10T04:02:37;21.25;;;15.25;;
30892;SDS011;17595;50.884;4.346;2023-05-10T04:05:03;26.85;;;16.08;;
30892;SDS011;17595;50.884;4.346;2023-05-10T04:07:29;28.35;;;16.85;;
30892;SDS011;17595;50.884;4.346;2023-05-10T04:09:54;25.40;;;16.20;;
30892;SDS011;17595;50.884;4.346;2023-05-10T04:12:20;28.63;;;15.93;;
30892;SDS011;17595;50.884;4.346;2023-05-10T04:14:46;26.48;;;16.27;;
30892;SDS011;17595;50.884;4.346;2023-05-10T04:17:11;27.80;;;17.73;;
30892;SDS011;17595;50.884;4.346;2023-05-10T04:19:37;24.92;;;16.42;;
30892;SDS011;17595;50.884;4.346;2023-05-10T04:22:03;26.42;;;17.33;;
30892;SDS011;17595;50.884;4.346;2023-05-10T04:24:29;28.10;;;17.63;;
30892;SDS011;17595;50.884;4.346;2023-05-10T04:26:54;27.27;;;17.55;;
30892;SDS011;17595;50.884;4.346;2023-05-10T04:29:20;24.73;;;17.02;;
30892;SDS011;17595;50.884;4.346;2023-05-10T04:31:46;25.55;;;16.65;;
30892;SDS011;17595;50.884;4.346;2023-05-10T04:34:12;27.00;;;17.63;;
30892;SDS011;17595;50.884;4.346;2023-05-10T04:36:37;28.25;;;18.33;;
30892;SDS011;17595;50.884;4.346;2023-05-10T04:39:03;29.02;;;18.70;;
30892;SDS011;17595;50.884;4.346;2023-05-10T04:41:29;28.83;;;18.52;;
30892;SDS011;17595;50.884;4.346;2023-05-10T04:43:55;27.02;;;18.63;;
30892;SDS011;17595;50.884;4.346;2023-05-10T04:46:21;30.20;;;19.10;;
30892;SDS011;17595;50.884;4.346;2023-05-10T04:48:47;25.80;;;18.85;;
30892;SDS011;17595;50.884;4.346;2023-05-10T04:51:12;26.45;;;17.90;;
30892;SDS011;17595;50.884;4.346;2023-05-10T04:53:38;29.13;;;18.23;;
30892;SDS011;17595;50.884;4.346;2023-05-10T04:56:04;27.08;;;17.75;;
30892;SDS011;17595;50.884;4.346;2023-05-10T04:58:30;26.70;;;18.30;;
30892;SDS011;17595;50.884;4.346;2023-05-10T05:00:56;30.20;;;19.42;;
30892;SDS011;17595;50.884;4.346;2023-05-10T05:03:21;28.02;;;18.38;;
30892;SDS011;17595;50.884;4.346;2023-05-10T05:05:47;30.92;;;19.80;;
30892;SDS011;17595;50.884;4.346;2023-05-10T05:08:13;30.75;;;19.13;;
30892;SDS011;17595;50.884;4.346;2023-05-10T05:10:39;29.02;;;18.27;;
30892;SDS011;17595;50.884;4.346;2023-05-10T05:13:04;28.45;;;18.92;;
30892;SDS011;17595;50.884;4.346;2023-05-10T05:15:30;29.77;;;19.90;;
30892;SDS011;17595;50.884;4.346;2023-05-10T05:17:56;27.15;;;18.90;;
30892;SDS011;17595;50.884;4.346;2023-05-10T05:20:22;27.08;;;17.95;;
30892;SDS011;17595;50.884;4.346;2023-05-10T05:22:47;24.50;;;17.30;;
30892;SDS011;17595;50.884;4.346;2023-05-10T05:25:14;27.38;;;17.50;;
30892;SDS011;17595;50.884;4.346;2023-05-10T05:27:40;26.05;;;18.45;;
30892;SDS011;17595;50.884;4.346;2023-05-10T05:30:06;25.98;;;17.90;;
30892;SDS011;17595;50.884;4.346;2023-05-10T05:32:33;26.98;;;18.42;;
30892;SDS011;17595;50.884;4.346;2023-05-10T05:34:58;25.63;;;17.77;;
30892;SDS011;17595;50.884;4.346;2023-05-10T05:37:25;27.30;;;18.65;;
30892;SDS011;17595;50.884;4.346;2023-05-10T05:39:51;28.17;;;18.05;;
30892;SDS011;17595;50.884;4.346;2023-05-10T05:42:17;26.27;;;17.98;;
30892;SDS011;17595;50.884;4.346;2023-05-10T05:44:43;28.52;;;18.90;;
30892;SDS011;17595;50.884;4.346;2023-05-10T05:47:09;28.08;;;18.02;;
30892;SDS011;17595;50.884;4.346;2023-05-10T05:49:35;29.23;;;19.48;;
30892;SDS011;17595;50.884;4.346;2023-05-10T05:52:02;27.92;;;19.02;;
30892;SDS011;17595;50.884;4.346;2023-05-10T05:54:29;24.20;;;16.98;;
30892;SDS011;17595;50.884;4.346;2023-05-10T05:56:58;24.67;;;15.82;;
30892;SDS011;17595;50.884;4.346;2023-05-10T05:59:25;21.88;;;16.02;;
30892;SDS011;17595;50.884;4.346;2023-05-10T06:01:51;22.70;;;15.30;;
30892;SDS011;17595;50.884;4.346;2023-05-10T06:04:17;24.08;;;14.00;;
30892;SDS011;17595;50.884;4.346;2023-05-10T06:06:43;20.98;;;14.32;;
30892;SDS011;17595;50.884;4.346;2023-05-10T06:09:09;24.23;;;14.15;;
30892;SDS011;17595;50.884;4.346;2023-05-10T06:11:34;20.27;;;13.80;;
30892;SDS011;17595;50.884;4.346;2023-05-10T06:14:01;20.85;;;13.63;;
30892;SDS011;17595;50.884;4.346;2023-05-10T06:16:27;21.10;;;13.98;;
30892;SDS011;17595;50.884;4.346;2023-05-10T06:18:53;24.58;;;14.15;;
30892;SDS011;17595;50.884;4.346;2023-05-10T06:21:18;18.92;;;12.82;;
30892;SDS011;17595;50.884;4.346;2023-05-10T06:23:44;18.75;;;13.60;;
30892;SDS011;17595;50.884;4.346;2023-05-10T06:26:10;23.08;;;14.15;;
30892;SDS011;17595;50.884;4.346;2023-05-10T06:28:35;20.35;;;14.27;;
30892;SDS011;17595;50.884;4.346;2023-05-10T06:31:04;26.88;;;15.10;;
30892;SDS011;17595;50.884;4.346;2023-05-10T06:33:30;27.73;;;15.68;;
30892;SDS011;17595;50.884;4.346;2023-05-10T06:35:56;33.83;;;16.40;;
30892;SDS011;17595;50.884;4.346;2023-05-10T06:38:22;24.38;;;15.55;;
30892;SDS011;17595;50.884;4.346;2023-05-10T06:40:47;24.15;;;15.32;;
30892;SDS011;17595;50.884;4.346;2023-05-10T06:43:13;27.30;;;16.55;;
30892;SDS011;17595;50.884;4.346;2023-05-10T06:45:39;26.33;;;17.23;;
30892;SDS011;17595;50.884;4.346;2023-05-10T06:48:05;30.05;;;17.23;;
30892;SDS011;17595;50.884;4.346;2023-05-10T06:50:31;29.27;;;17.58;;
30892;SDS011;17595;50.884;4.346;2023-05-10T06:52:58;29.90;;;17.88;;
30892;SDS011;17595;50.884;4.346;2023-05-10T06:55:24;29.70;;;17.95;;
30892;SDS011;17595;50.884;4.346;2023-05-10T06:57:50;30.85;;;18.30;;
30892;SDS011;17595;50.884;4.346;2023-05-10T07:00:16;30.15;;;17.60;;
30892;SDS011;17595;50.884;4.346;2023-05-10T07:02:42;32.08;;;17.27;;
30892;SDS011;17595;50.884;4.346;2023-05-10T07:05:08;29.60;;;17.20;;
30892;SDS011;17595;50.884;4.346;2023-05-10T07:07:34;32.75;;;18.42;;
30892;SDS011;17595;50.884;4.346;2023-05-10T07:10:00;27.95;;;17.42;;
30892;SDS011;17595;50.884;4.346;2023-05-10T07:12:25;26.83;;;15.50;;
30892;SDS011;17595;50.884;4.346;2023-05-10T07:14:51;29.77;;;17.00;;
30892;SDS011;17595;50.884;4.346;2023-05-10T07:17:17;28.77;;;17.42;;
30892;SDS011;17595;50.884;4.346;2023-05-10T07:19:43;27.42;;;15.18;;
30892;SDS011;17595;50.884;4.346;2023-05-10T07:22:09;22.85;;;14.68;;
30892;SDS011;17595;50.884;4.346;2023-05-10T07:24:34;31.55;;;16.85;;
30892;SDS011;17595;50.884;4.346;2023-05-10T07:27:00;26.92;;;16.70;;
30892;SDS011;17595;50.884;4.346;2023-05-10T07:29:26;30.30;;;16.35;;
30892;SDS011;17595;50.884;4.346;2023-05-10T07:31:51;24.63;;;14.98;;
30892;SDS011;17595;50.884;4.346;2023-05-10T07:34:17;32.67;;;15.45;;
30892;SDS011;17595;50.884;4.346;2023-05-10T07:36:43;22.88;;;14.50;;
30892;SDS011;17595;50.884;4.346;2023-05-10T07:39:09;24.67;;;14.32;;
30892;SDS011;17595;50.884;4.346;2023-05-10T07:41:34;21.50;;;14.43;;
30892;SDS011;17595;50.884;4.346;2023-05-10T07:44:02;24.30;;;14.32;;
30892;SDS011;17595;50.884;4.346;2023-05-10T07:46:28;27.10;;;15.20;;
30892;SDS011;17595;50.884;4.346;2023-05-10T07:48:54;22.70;;;13.38;;
30892;SDS011;17595;50.884;4.346;2023-05-10T07:51:20;21.33;;;12.20;;
30892;SDS011;17595;50.884;4.346;2023-05-10T07:53:46;23.77;;;10.60;;
30892;SDS011;17595;50.884;4.346;2023-05-10T07:56:22;16.88;;;9.23;;
30892;SDS011;17595;50.884;4.346;2023-05-10T07:58:54;17.90;;;9.93;;
30892;SDS011;17595;50.884;4.346;2023-05-10T08:01:21;21.65;;;10.25;;
30892;SDS011;17595;50.884;4.346;2023-05-10T08:03:47;21.85;;;10.18;;
30892;SDS011;17595;50.884;4.346;2023-05-10T08:06:14;16.52;;;9.73;;
30892;SDS011;17595;50.884;4.346;2023-05-10T08:08:40;22.45;;;10.18;;
30892;SDS011;17595;50.884;4.346;2023-05-10T08:11:06;18.30;;;9.32;;
30892;SDS011;17595;50.884;4.346;2023-05-10T08:13:32;18.10;;;10.10;;
30892;SDS011;17595;50.884;4.346;2023-05-10T08:15:58;16.50;;;9.65;;
30892;SDS011;17595;50.884;4.346;2023-05-10T08:18:23;19.33;;;9.73;;
30892;SDS011;17595;50.884;4.346;2023-05-10T08:20:49;15.48;;;9.30;;
30892;SDS011;17595;50.884;4.346;2023-05-10T08:23:15;14.85;;;10.15;;
30892;SDS011;17595;50.884;4.346;2023-05-10T08:25:41;12.65;;;9.00;;
30892;SDS011;17595;50.884;4.346;2023-05-10T08:28:06;17.10;;;8.27;;
30892;SDS011;17595;50.884;4.346;2023-05-10T08:30:32;12.30;;;8.52;;
30892;SDS011;17595;50.884;4.346;2023-05-10T08:32:58;14.20;;;8.30;;
30892;SDS011;17595;50.884;4.346;2023-05-10T08:35:23;12.60;;;8.65;;
30892;SDS011;17595;50.884;4.346;2023-05-10T08:37:50;15.02;;;8.00;;
30892;SDS011;17595;50.884;4.346;2023-05-10T08:40:16;12.80;;;8.23;;
30892;SDS011;17595;50.884;4.346;2023-05-10T08:42:47;12.82;;;8.45;;
30892;SDS011;17595;50.884;4.346;2023-05-10T08:45:20;12.40;;;7.55;;
30892;SDS011;17595;50.884;4.346;2023-05-10T08:47:48;14.40;;;8.13;;
30892;SDS011;17595;50.884;4.346;2023-05-10T08:50:16;11.60;;;7.85;;
30892;SDS011;17595;50.884;4.346;2023-05-10T08:52:45;14.43;;;8.00;;
30892;SDS011;17595;50.884;4.346;2023-05-10T08:55:12;10.73;;;7.60;;
30892;SDS011;17595;50.884;4.346;2023-05-10T08:57:38;11.80;;;7.75;;
30892;SDS011;17595;50.884;4.346;2023-05-10T09:00:04;8.93;;;7.25;;
30892;SDS011;17595;50.884;4.346;2023-05-10T09:02:30;8.95;;;6.72;;
30892;SDS011;17595;50.884;4.346;2023-05-10T09:04:56;10.38;;;7.88;;
30892;SDS011;17595;50.884;4.346;2023-05-10T09:07:22;12.52;;;8.38;;
30892;SDS011;17595;50.884;4.346;2023-05-10T09:09:48;13.38;;;7.82;;
30892;SDS011;17595;50.884;4.346;2023-05-10T09:12:13;12.98;;;8.15;;
30892;SDS011;17595;50.884;4.346;2023-05-10T09:14:41;10.85;;;7.40;;
30892;SDS011;17595;50.884;4.346;2023-05-10T09:17:09;9.50;;;7.30;;
30892;SDS011;17595;50.884;4.346;2023-05-10T09:19:35;11.40;;;6.88;;
30892;SDS011;17595;50.884;4.346;2023-05-10T09:22:00;10.90;;;7.03;;
30892;SDS011;17595;50.884;4.346;2023-05-10T09:24:28;9.95;;;6.90;;
30892;SDS011;17595;50.884;4.346;2023-05-10T09:26:54;10.15;;;7.75;;
30892;SDS011;17595;50.884;4.346;2023-05-10T09:29:23;13.27;;;7.70;;
30892;SDS011;17595;50.884;4.346;2023-05-10T09:31:52;10.27;;;7.95;;
30892;SDS011;17595;50.884;4.346;2023-05-10T09:34:28;10.48;;;7.28;;
30892;SDS011;17595;50.884;4.346;2023-05-10T09:36:55;8.85;;;7.18;;
30892;SDS011;17595;50.884;4.346;2023-05-10T09:41:57;11.70;;;7.40;;
30892;SDS011;17595;50.884;4.346;2023-05-10T09:44:25;10.52;;;7.00;;
30892;SDS011;17595;50.884;4.346;2023-05-10T09:46:52;9.20;;;6.97;;
30892;SDS011;17595;50.884;4.346;2023-05-10T09:49:18;9.05;;;7.10;;
